createdAt,value
2023-05-01T00:00:34.403Z,32.04
2023-05-01T00:03:00.838Z,31.89
2023-05-01T00:05:27.285Z,31.49
2023-05-01T00:07:53.660Z,31.76
2023-05-01T00:10:19.996Z,31.70
2023-05-01T00:12:46.308Z,31.64
2023-05-01T00:15:12.671Z,31.80
2023-05-01T00:17:39.101Z,31.91
2023-05-01T00:20:05.485Z,31.98
2023-05-01T00:22:31.887Z,32.24
2023-05-01T00:24:58.246Z,32.40
2023-05-01T00:27:24.605Z,32.43
2023-05-01T00:29:51.007Z,32.38
2023-05-01T00:32:17.539Z,32.45
2023-05-01T00:34:43.894Z,32.38
2023-05-01T00:37:10.277Z,32.68
2023-05-01T00:39:36.590Z,32.64
2023-05-01T00:42:03.146Z,32.66
2023-05-01T00:44:29.542Z,32.83
2023-05-01T00:46:55.951Z,32.75
2023-05-01T00:49:22.252Z,33.05
2023-05-01T00:51:48.611Z,32.71
2023-05-01T00:54:14.982Z,32.76
2023-05-01T00:56:41.306Z,33.04
2023-05-01T00:59:07.754Z,32.84
2023-05-01T01:01:34.145Z,32.91
2023-05-01T01:04:00.534Z,33.11
2023-05-01T01:06:26.991Z,32.94
2023-05-01T01:08:53.364Z,33.07
2023-05-01T01:11:19.708Z,33.34
2023-05-01T01:13:46.050Z,33.39
2023-05-01T01:16:12.427Z,33.46
2023-05-01T01:18:38.803Z,33.54
2023-05-01T01:21:05.169Z,33.20
2023-05-01T01:23:31.546Z,33.20
2023-05-01T01:25:57.858Z,32.84
2023-05-01T01:28:24.235Z,32.87
2023-05-01T01:30:50.595Z,32.88
2023-05-01T01:33:16.943Z,33.16
2023-05-01T01:35:43.297Z,33.03
2023-05-01T01:38:09.629Z,33.08
2023-05-01T01:40:35.963Z,33.26
2023-05-01T01:43:02.339Z,33.29
2023-05-01T01:45:28.667Z,33.04
2023-05-01T01:47:55.070Z,33.29
2023-05-01T01:50:21.493Z,33.32
2023-05-01T01:52:47.893Z,33.38
2023-05-01T01:55:14.215Z,33.19
2023-05-01T01:57:40.594Z,33.42
2023-05-01T02:00:07.682Z,33.44
2023-05-01T02:02:39.581Z,33.39
2023-05-01T02:05:06.051Z,33.41
2023-05-01T02:07:32.355Z,33.61
2023-05-01T02:09:58.872Z,33.23
2023-05-01T02:12:25.777Z,33.41
2023-05-01T02:14:53.322Z,33.24
2023-05-01T02:17:19.705Z,33.66
2023-05-01T02:19:46.084Z,33.55
2023-05-01T02:22:12.417Z,33.68
2023-05-01T02:24:38.755Z,33.45
2023-05-01T02:27:05.121Z,33.46
2023-05-01T02:29:31.447Z,33.49
2023-05-01T02:31:57.782Z,33.64
2023-05-01T02:34:24.248Z,33.83
2023-05-01T02:36:50.574Z,33.44
2023-05-01T02:39:16.971Z,33.60
2023-05-01T02:41:43.345Z,33.65
2023-05-01T02:44:09.656Z,33.83
2023-05-01T02:46:35.965Z,33.68
2023-05-01T02:49:03.102Z,33.93
2023-05-01T02:51:29.523Z,33.94
2023-05-01T02:53:55.872Z,33.85
2023-05-01T02:56:23.114Z,33.75
2023-05-01T02:58:49.487Z,33.70
2023-05-01T03:01:15.908Z,34.14
2023-05-01T03:03:42.350Z,33.72
2023-05-01T03:06:08.739Z,33.77
2023-05-01T03:08:35.106Z,33.93
2023-05-01T03:11:01.469Z,34.19
2023-05-01T03:13:27.768Z,34.01
2023-05-01T03:15:54.107Z,34.00
2023-05-01T03:18:20.507Z,34.02
2023-05-01T03:20:46.813Z,34.01
2023-05-01T03:23:13.174Z,34.31
2023-05-01T03:25:39.556Z,34.23
2023-05-01T03:28:05.867Z,34.18
2023-05-01T03:30:32.333Z,34.18
2023-05-01T03:32:58.763Z,34.24
2023-05-01T03:35:29.975Z,34.47
2023-05-01T03:37:57.074Z,34.28
2023-05-01T03:40:42.028Z,34.51
2023-05-01T03:43:27.220Z,34.29
2023-05-01T03:45:55.343Z,34.42
2023-05-01T03:48:21.763Z,34.77
2023-05-01T03:50:48.084Z,34.57
2023-05-01T03:53:14.788Z,34.67
2023-05-01T03:55:41.127Z,34.71
2023-05-01T03:58:07.523Z,34.58
2023-05-01T04:00:34.035Z,34.55
2023-05-01T04:03:00.695Z,35.01
2023-05-01T04:05:28.021Z,34.78
2023-05-01T04:08:00.014Z,35.12
2023-05-01T04:10:26.408Z,34.98
2023-05-01T04:13:00.404Z,34.99
2023-05-01T04:15:26.750Z,35.13
2023-05-01T04:17:53.269Z,35.30
2023-05-01T04:20:19.711Z,35.30
2023-05-01T04:22:46.606Z,35.26
2023-05-01T04:25:13.039Z,35.35
2023-05-01T04:27:39.809Z,35.39
2023-05-01T04:30:06.252Z,35.42
2023-05-01T04:32:32.783Z,35.38
2023-05-01T04:34:59.875Z,35.38
2023-05-01T04:37:26.938Z,35.60
2023-05-01T04:39:53.475Z,35.54
2023-05-01T04:42:21.602Z,35.51
2023-05-01T04:44:48.150Z,35.56
2023-05-01T04:47:14.895Z,35.46
2023-05-01T04:49:41.368Z,35.37
2023-05-01T04:52:07.811Z,35.34
2023-05-01T04:54:48.789Z,35.46
2023-05-01T04:57:15.178Z,35.40
2023-05-01T04:59:41.732Z,35.50
2023-05-01T05:02:08.129Z,35.40
2023-05-01T05:04:34.454Z,35.27
2023-05-01T05:07:00.773Z,35.47
2023-05-01T05:09:41.084Z,35.49
2023-05-01T05:12:07.455Z,35.26
2023-05-01T05:14:33.800Z,35.52
2023-05-01T05:17:00.351Z,35.30
2023-05-01T05:19:27.217Z,35.11
2023-05-01T05:21:53.630Z,35.54
2023-05-01T05:24:20.243Z,35.49
2023-05-01T05:26:47.280Z,35.44
2023-05-01T05:29:13.790Z,35.18
2023-05-01T05:31:40.245Z,35.23
2023-05-01T05:34:06.639Z,35.39
2023-05-01T05:36:33.373Z,35.30
2023-05-01T05:39:00.219Z,35.07
2023-05-01T05:41:26.710Z,35.17
2023-05-01T05:43:57.623Z,35.07
2023-05-01T05:46:24.822Z,35.00
2023-05-01T05:48:51.308Z,35.08
2023-05-01T05:51:17.805Z,34.96
2023-05-01T05:53:44.236Z,35.01
2023-05-01T05:56:10.717Z,35.08
2023-05-01T05:58:38.161Z,35.14
2023-05-01T06:01:04.997Z,35.16
2023-05-01T06:03:31.619Z,35.13
2023-05-01T06:06:01.249Z,34.90
2023-05-01T06:08:27.929Z,35.09
2023-05-01T06:10:54.471Z,34.92
2023-05-01T06:13:21.001Z,35.00
2023-05-01T06:15:49.048Z,34.85
2023-05-01T06:18:15.983Z,34.72
2023-05-01T06:20:42.549Z,34.63
2023-05-01T06:23:08.996Z,34.77
2023-05-01T06:26:04.620Z,34.62
2023-05-01T06:28:31.191Z,34.69
2023-05-01T06:30:57.619Z,34.48
2023-05-01T06:33:25.518Z,34.48
2023-05-01T06:36:02.601Z,34.72
2023-05-01T06:38:31.156Z,34.61
2023-05-01T06:40:57.493Z,34.43
2023-05-01T06:43:23.852Z,34.42
2023-05-01T06:45:52.517Z,34.18
2023-05-01T06:48:19.536Z,34.04
2023-05-01T06:50:45.871Z,34.03
2023-05-01T06:53:13.163Z,34.04
2023-05-01T06:55:39.473Z,33.94
2023-05-01T06:58:15.985Z,33.68
2023-05-01T07:00:49.697Z,34.07
2023-05-01T07:03:16.088Z,33.67
2023-05-01T07:05:42.463Z,33.57
2023-05-01T07:08:08.794Z,33.62
2023-05-01T07:10:35.162Z,33.73
2023-05-01T07:13:01.494Z,33.43
2023-05-01T07:15:27.847Z,33.40
2023-05-01T07:17:54.238Z,33.38
2023-05-01T07:20:20.746Z,33.43
2023-05-01T07:22:47.115Z,33.54
2023-05-01T07:25:13.461Z,33.18
2023-05-01T07:27:39.971Z,33.07
2023-05-01T07:30:06.336Z,33.09
2023-05-01T07:32:32.784Z,33.29
2023-05-01T07:34:59.158Z,33.09
2023-05-01T07:37:25.572Z,33.03
2023-05-01T07:39:52.160Z,32.66
2023-05-01T07:42:18.621Z,32.91
2023-05-01T07:44:45.000Z,32.95
2023-05-01T07:47:11.389Z,32.92
2023-05-01T07:49:37.716Z,32.71
2023-05-01T07:52:04.045Z,32.78
2023-05-01T07:54:30.490Z,32.78
2023-05-01T07:56:56.890Z,32.69
2023-05-01T07:59:23.231Z,32.64
2023-05-01T08:01:49.742Z,32.37
2023-05-01T08:04:16.404Z,32.29
2023-05-01T08:06:42.922Z,32.52
2023-05-01T08:09:09.401Z,32.33
2023-05-01T08:11:35.743Z,32.22
2023-05-01T08:14:02.241Z,32.00
2023-05-01T08:16:28.769Z,32.08
2023-05-01T08:18:55.228Z,32.00
2023-05-01T08:21:21.612Z,31.88
2023-05-01T08:23:48.107Z,31.89
2023-05-01T08:26:14.565Z,31.51
2023-05-01T08:28:41.017Z,31.51
2023-05-01T08:31:07.459Z,31.67
2023-05-01T08:33:33.791Z,31.58
2023-05-01T08:36:00.307Z,31.70
2023-05-01T08:38:26.897Z,31.65
2023-05-01T08:40:53.329Z,31.12
2023-05-01T08:43:19.753Z,31.50
2023-05-01T08:45:46.210Z,31.05
2023-05-01T08:48:12.614Z,31.36
2023-05-01T08:50:38.983Z,31.02
2023-05-01T08:53:05.423Z,31.00
2023-05-01T08:55:31.766Z,30.88
2023-05-01T08:57:58.375Z,31.04
2023-05-01T09:00:24.775Z,31.11
2023-05-01T09:02:51.170Z,30.89
2023-05-01T09:05:17.651Z,30.95
2023-05-01T09:07:44.159Z,30.76
2023-05-01T09:10:10.543Z,30.92
2023-05-01T09:12:36.907Z,30.88
2023-05-01T09:15:03.346Z,31.49
2023-05-01T09:17:29.765Z,31.50
2023-05-01T09:19:56.284Z,31.26
2023-05-01T09:22:22.849Z,31.12
2023-05-01T09:24:49.181Z,31.09
2023-05-01T09:27:15.536Z,31.01
2023-05-01T09:29:41.926Z,31.22
2023-05-01T09:32:08.400Z,31.10
2023-05-01T09:34:34.974Z,31.06
2023-05-01T09:37:01.373Z,30.82
2023-05-01T09:39:27.811Z,31.02
2023-05-01T09:41:54.226Z,31.05
2023-05-01T09:44:20.665Z,31.00
2023-05-01T09:46:46.991Z,30.89
2023-05-01T09:49:13.422Z,30.75
2023-05-01T09:51:39.848Z,30.67
2023-05-01T09:54:06.250Z,30.77
2023-05-01T09:56:32.665Z,30.62
2023-05-01T09:58:59.236Z,30.60
2023-05-01T10:01:25.668Z,30.64
2023-05-01T10:03:52.273Z,30.32
2023-05-01T10:06:18.915Z,30.36
2023-05-01T10:08:45.331Z,30.40
2023-05-01T10:11:11.782Z,30.41
2023-05-01T10:13:38.202Z,30.43
2023-05-01T10:16:04.760Z,30.29
2023-05-01T10:18:31.164Z,30.65
2023-05-01T10:20:57.523Z,30.25
2023-05-01T10:23:23.913Z,30.18
2023-05-01T10:25:50.241Z,30.31
2023-05-01T10:28:16.611Z,29.95
2023-05-01T10:30:42.936Z,30.02
2023-05-01T10:33:09.398Z,30.25
2023-05-01T10:35:35.907Z,30.05
2023-05-01T10:38:02.223Z,30.10
2023-05-01T10:40:28.564Z,29.98
2023-05-01T10:42:54.948Z,29.90
2023-05-01T10:45:21.271Z,29.83
2023-05-01T10:47:47.668Z,29.99
2023-05-01T10:50:14.164Z,29.77
2023-05-01T10:52:40.549Z,29.70
2023-05-01T10:55:06.868Z,29.84
2023-05-01T10:57:33.365Z,29.67
2023-05-01T10:59:59.790Z,29.73
2023-05-01T11:02:26.437Z,29.74
2023-05-01T11:04:53.129Z,29.76
2023-05-01T11:07:19.708Z,29.65
2023-05-01T11:09:46.049Z,29.68
2023-05-01T11:12:12.433Z,29.51
2023-05-01T11:14:38.761Z,29.57
2023-05-01T11:17:05.120Z,29.41
2023-05-01T11:19:31.513Z,29.58
2023-05-01T11:21:57.846Z,29.48
2023-05-01T11:24:24.160Z,29.33
2023-05-01T11:26:50.633Z,29.44
2023-05-01T11:29:17.078Z,29.29
2023-05-01T11:31:43.601Z,29.07
2023-05-01T11:34:09.999Z,29.36
2023-05-01T11:36:36.352Z,29.27
2023-05-01T11:39:02.674Z,29.24
2023-05-01T11:41:29.060Z,29.35
2023-05-01T11:43:55.374Z,29.17
2023-05-01T11:46:21.754Z,29.01
2023-05-01T11:48:48.166Z,29.25
2023-05-01T11:51:14.538Z,29.10
2023-05-01T11:53:40.852Z,29.29
2023-05-01T11:56:13.390Z,29.26
2023-05-01T11:58:49.644Z,29.14
2023-05-01T12:01:16.010Z,28.91
2023-05-01T12:03:42.468Z,28.81
2023-05-01T12:06:08.999Z,28.84
2023-05-01T12:08:35.404Z,28.89
2023-05-01T12:11:01.732Z,28.86
2023-05-01T12:13:28.069Z,28.96
2023-05-01T12:15:54.452Z,28.86
2023-05-01T12:18:20.982Z,28.80
2023-05-01T12:20:47.436Z,28.78
2023-05-01T12:23:13.822Z,28.74
2023-05-01T12:25:40.140Z,28.62
2023-05-01T12:28:06.460Z,28.70
2023-05-01T12:30:32.812Z,28.64
2023-05-01T12:32:59.334Z,28.08
2023-05-01T12:35:25.697Z,28.35
2023-05-01T12:37:52.044Z,28.44
2023-05-01T12:40:18.429Z,28.49
2023-05-01T12:42:44.749Z,28.22
2023-05-01T12:45:11.111Z,28.38
2023-05-01T12:47:37.466Z,28.43
2023-05-01T12:50:03.824Z,28.37
2023-05-01T12:52:30.235Z,28.19
2023-05-01T12:54:56.745Z,28.29
2023-05-01T12:57:23.132Z,28.12
2023-05-01T12:59:49.511Z,28.04
2023-05-01T13:02:16.205Z,28.12
2023-05-01T13:04:42.732Z,27.94
2023-05-01T13:07:09.086Z,27.83
2023-05-01T13:09:35.413Z,27.82
2023-05-01T13:12:01.747Z,27.91
2023-05-01T13:14:28.102Z,27.51
2023-05-01T13:16:54.463Z,27.53
2023-05-01T13:19:20.801Z,27.66
2023-05-01T13:21:47.165Z,27.41
2023-05-01T13:24:13.488Z,27.23
2023-05-01T13:26:39.809Z,27.36
2023-05-01T13:29:06.165Z,27.02
2023-05-01T13:31:32.533Z,26.76
2023-05-01T13:33:58.935Z,26.96
2023-05-01T13:36:26.648Z,26.83
2023-05-01T13:38:53.613Z,27.02
2023-05-01T13:41:19.924Z,26.95
2023-05-01T13:43:46.292Z,26.71
2023-05-01T13:46:12.703Z,27.09
2023-05-01T13:48:39.102Z,26.81
2023-05-01T13:51:05.507Z,27.10
2023-05-01T13:53:31.832Z,27.40
2023-05-01T13:55:58.169Z,26.79
2023-05-01T13:58:24.523Z,27.06
2023-05-01T14:00:50.853Z,26.82
2023-05-01T14:03:17.328Z,27.18
2023-05-01T14:05:43.774Z,26.58
2023-05-01T14:08:10.085Z,27.00
2023-05-01T14:10:36.418Z,27.05
2023-05-01T14:13:02.789Z,26.46
2023-05-01T14:15:29.102Z,26.47
2023-05-01T14:17:55.452Z,26.52
2023-05-01T14:20:21.848Z,26.66
2023-05-01T14:22:48.152Z,26.67
2023-05-01T14:25:14.458Z,26.42
2023-05-01T14:27:40.838Z,26.39
2023-05-01T14:30:07.152Z,26.44
2023-05-01T14:32:33.507Z,26.89
2023-05-01T14:35:00.106Z,26.68
2023-05-01T14:37:26.571Z,26.65
2023-05-01T14:39:52.897Z,26.50
2023-05-01T14:42:19.271Z,26.24
2023-05-01T14:44:45.586Z,26.49
2023-05-01T14:47:11.928Z,26.47
2023-05-01T14:49:38.286Z,26.50
2023-05-01T14:52:04.622Z,26.45
2023-05-01T14:54:30.932Z,27.05
2023-05-01T14:56:57.279Z,26.64
2023-05-01T14:59:23.597Z,26.45
2023-05-01T15:01:49.966Z,26.78
2023-05-01T15:04:16.456Z,26.66
2023-05-01T15:06:42.888Z,26.22
2023-05-01T15:09:09.218Z,26.64
2023-05-01T15:11:35.608Z,26.37
2023-05-01T15:14:01.956Z,26.87
2023-05-01T15:16:28.348Z,26.09
2023-05-01T15:18:54.749Z,26.62
2023-05-01T15:21:21.136Z,26.45
2023-05-01T15:23:47.482Z,26.41
2023-05-01T15:26:13.909Z,26.55
2023-05-01T15:28:40.248Z,26.87
2023-05-01T15:31:06.557Z,26.68
2023-05-01T15:33:32.921Z,26.49
2023-05-01T15:35:59.294Z,26.38
2023-05-01T15:38:25.612Z,26.26
2023-05-01T15:40:51.993Z,26.31
2023-05-01T15:43:18.305Z,26.21
2023-05-01T15:45:44.796Z,26.43
2023-05-01T15:48:11.400Z,26.33
2023-05-01T15:50:37.843Z,25.92
2023-05-01T15:53:04.157Z,26.26
2023-05-01T15:55:30.516Z,25.52
2023-05-01T15:57:56.838Z,25.85
2023-05-01T16:00:23.163Z,25.65
2023-05-01T16:02:49.615Z,25.26
2023-05-01T16:05:15.973Z,25.30
2023-05-01T16:07:42.419Z,25.23
2023-05-01T16:10:08.791Z,25.69
2023-05-01T16:12:35.106Z,25.24
2023-05-01T16:15:01.501Z,25.50
2023-05-01T16:17:27.923Z,25.73
2023-05-01T16:19:54.262Z,25.58
2023-05-01T16:22:20.693Z,25.42
2023-05-01T16:24:47.058Z,25.30
2023-05-01T16:27:13.415Z,25.27
2023-05-01T16:29:39.755Z,25.09
2023-05-01T16:32:06.251Z,25.28
2023-05-01T16:34:32.609Z,25.31
2023-05-01T16:36:58.946Z,24.75
2023-05-01T16:39:25.312Z,25.13
2023-05-01T16:41:51.659Z,25.28
2023-05-01T16:44:17.986Z,24.85
2023-05-01T16:46:44.460Z,24.95
2023-05-01T16:49:10.894Z,24.92
2023-05-01T16:51:37.220Z,25.04
2023-05-01T16:54:03.561Z,25.37
2023-05-01T16:56:29.880Z,24.99
2023-05-01T16:58:56.220Z,24.76
2023-05-01T17:01:22.669Z,24.88
2023-05-01T17:03:49.023Z,25.04
2023-05-01T17:06:15.445Z,25.15
2023-05-01T17:08:41.883Z,25.39
2023-05-01T17:11:08.213Z,25.03
2023-05-01T17:13:34.522Z,24.88
2023-05-01T17:16:01.049Z,24.73
2023-05-01T17:18:27.423Z,24.71
2023-05-01T17:20:53.730Z,25.18
2023-05-01T17:23:20.108Z,24.81
2023-05-01T17:25:46.434Z,24.89
2023-05-01T17:28:12.745Z,24.99
2023-05-01T17:30:39.126Z,25.15
2023-05-01T17:33:05.527Z,25.08
2023-05-01T17:35:31.938Z,25.01
2023-05-01T17:37:58.434Z,25.30
2023-05-01T17:40:24.745Z,25.32
2023-05-01T17:42:51.078Z,25.24
2023-05-01T17:45:17.460Z,25.25
2023-05-01T17:47:43.865Z,25.23
2023-05-01T17:50:10.287Z,25.75
2023-05-01T17:52:36.652Z,25.68
2023-05-01T17:55:02.976Z,25.28
2023-05-01T17:57:29.295Z,25.44
2023-05-01T17:59:55.664Z,24.80
2023-05-01T18:02:22.069Z,25.05
2023-05-01T18:04:48.478Z,25.31
2023-05-01T18:07:14.885Z,25.22
2023-05-01T18:09:41.213Z,25.18
2023-05-01T18:12:07.662Z,25.51
2023-05-01T18:14:34.040Z,25.53
2023-05-01T18:17:00.426Z,25.66
2023-05-01T18:19:26.815Z,25.53
2023-05-01T18:21:53.161Z,25.26
2023-05-01T18:24:19.540Z,25.67
2023-05-01T18:26:45.893Z,25.68
2023-05-01T18:29:12.260Z,25.85
2023-05-01T18:31:38.632Z,25.89
2023-05-01T18:34:05.003Z,25.44
2023-05-01T18:36:31.353Z,25.79
2023-05-01T18:38:57.662Z,25.75
2023-05-01T18:41:24.001Z,25.86
2023-05-01T18:43:51.842Z,26.02
2023-05-01T18:46:20.678Z,26.08
2023-05-01T18:48:46.992Z,25.62
2023-05-01T18:51:13.381Z,25.63
2023-05-01T18:53:39.736Z,26.04
2023-05-01T18:56:06.088Z,25.79
2023-05-01T18:58:32.497Z,26.03
2023-05-01T19:00:58.857Z,25.90
2023-05-01T19:03:25.165Z,26.15
2023-05-01T19:05:51.520Z,26.10
2023-05-01T19:08:17.892Z,26.17
2023-05-01T19:10:44.207Z,26.47
2023-05-01T19:13:10.687Z,26.35
2023-05-01T19:15:37.038Z,26.52
2023-05-01T19:18:03.433Z,26.53
2023-05-01T19:20:29.882Z,26.44
2023-05-01T19:22:56.213Z,26.79
2023-05-01T19:25:22.534Z,26.34
2023-05-01T19:27:48.903Z,26.44
2023-05-01T19:30:15.213Z,26.53
2023-05-01T19:32:41.580Z,26.69
2023-05-01T19:35:08.167Z,26.87
2023-05-01T19:37:34.487Z,26.78
2023-05-01T19:40:01.150Z,27.04
2023-05-01T19:42:27.845Z,26.73
2023-05-01T19:44:54.170Z,27.32
2023-05-01T19:47:20.537Z,27.00
2023-05-01T19:49:46.894Z,26.92
2023-05-01T19:52:13.193Z,27.21
2023-05-01T19:54:39.534Z,27.15
2023-05-01T19:57:06.032Z,27.16
2023-05-01T19:59:32.374Z,26.97
2023-05-01T20:02:00.521Z,27.41
2023-05-01T20:04:27.793Z,27.26
2023-05-01T20:06:54.267Z,27.21
2023-05-01T20:09:20.689Z,27.25
2023-05-01T20:11:47.045Z,27.39
2023-05-01T20:14:13.390Z,27.45
2023-05-01T20:16:39.777Z,27.69
2023-05-01T20:19:06.211Z,27.86
2023-05-01T20:21:32.537Z,27.82
2023-05-01T20:23:58.862Z,27.71
2023-05-01T20:26:25.213Z,27.71
2023-05-01T20:28:51.535Z,27.78
2023-05-01T20:31:17.926Z,27.86
2023-05-01T20:33:44.346Z,28.01
2023-05-01T20:36:10.674Z,28.19
2023-05-01T20:38:37.007Z,28.10
2023-05-01T20:41:03.394Z,27.92
2023-05-01T20:43:29.721Z,28.26
2023-05-01T20:45:56.100Z,28.24
2023-05-01T20:48:22.465Z,28.41
2023-05-01T20:50:48.778Z,28.32
2023-05-01T20:53:15.118Z,28.10
2023-05-01T20:55:41.488Z,28.31
2023-05-01T20:58:07.797Z,28.46
2023-05-01T21:00:34.103Z,28.33
2023-05-01T21:03:00.593Z,28.39
2023-05-01T21:05:27.066Z,28.62
2023-05-01T21:07:53.376Z,28.46
2023-05-01T21:10:19.755Z,28.28
2023-05-01T21:12:46.115Z,28.41
2023-05-01T21:15:12.423Z,28.73
2023-05-01T21:17:38.965Z,28.80
2023-05-01T21:20:05.296Z,28.67
2023-05-01T21:22:31.627Z,28.87
2023-05-01T21:24:58.000Z,28.83
2023-05-01T21:27:24.343Z,28.85
2023-05-01T21:29:50.663Z,28.99
2023-05-01T21:32:17.028Z,28.98
2023-05-01T21:34:43.378Z,29.02
2023-05-01T21:37:09.688Z,29.11
2023-05-01T21:39:36.050Z,29.40
2023-05-01T21:42:02.445Z,29.40
2023-05-01T21:44:28.813Z,29.36
2023-05-01T21:46:55.217Z,29.37
2023-05-01T21:49:21.565Z,29.43
2023-05-01T21:51:47.884Z,29.34
2023-05-01T21:54:14.221Z,29.42
2023-05-01T21:56:40.586Z,29.44
2023-05-01T21:59:06.938Z,29.85
2023-05-01T22:01:33.350Z,29.66
2023-05-01T22:03:59.961Z,29.90
2023-05-01T22:06:26.407Z,29.92
2023-05-01T22:08:52.864Z,29.88
2023-05-01T22:11:19.185Z,29.92
2023-05-01T22:13:45.499Z,29.87
2023-05-01T22:16:11.907Z,29.85
2023-05-01T22:18:38.279Z,29.80
2023-05-01T22:21:04.602Z,29.82
2023-05-01T22:23:30.957Z,29.94
2023-05-01T22:25:57.268Z,29.88
2023-05-01T22:28:23.595Z,30.18
2023-05-01T22:30:50.020Z,30.26
2023-05-01T22:33:16.434Z,30.20
2023-05-01T22:35:42.804Z,30.31
2023-05-01T22:38:09.166Z,30.20
2023-05-01T22:40:35.520Z,30.31
2023-05-01T22:43:01.825Z,30.58
2023-05-01T22:45:28.190Z,30.33
2023-05-01T22:47:54.635Z,30.45
2023-05-01T22:50:20.999Z,30.50
2023-05-01T22:52:47.344Z,30.69
2023-05-01T22:55:13.660Z,30.42
2023-05-01T22:57:40.089Z,30.62
2023-05-01T23:00:06.548Z,30.69
2023-05-01T23:02:32.920Z,30.83
2023-05-01T23:04:59.306Z,30.94
2023-05-01T23:07:25.654Z,30.82
2023-05-01T23:09:51.958Z,30.71
2023-05-01T23:12:18.275Z,30.93
2023-05-01T23:14:44.650Z,30.94
2023-05-01T23:17:10.962Z,30.99
2023-05-01T23:19:37.277Z,31.18
2023-05-01T23:22:03.659Z,31.11
2023-05-01T23:24:30.016Z,31.09
2023-05-01T23:26:56.323Z,31.12
2023-05-01T23:29:22.693Z,31.13
2023-05-01T23:31:49.056Z,31.51
2023-05-01T23:34:15.452Z,31.36
2023-05-01T23:36:41.852Z,31.55
2023-05-01T23:39:08.176Z,31.44
2023-05-01T23:41:34.506Z,31.56
2023-05-01T23:44:00.894Z,31.70
2023-05-01T23:46:27.246Z,31.72
2023-05-01T23:48:53.581Z,31.66
2023-05-01T23:51:19.938Z,31.80
2023-05-01T23:53:46.265Z,31.84
2023-05-01T23:56:12.589Z,32.09
2023-05-01T23:58:38.972Z,31.99
